createdAt,value
2023-01-31T00:00:19.703Z,22.30
2023-01-31T00:04:05.285Z,23.20
2023-01-31T00:07:35.009Z,27.50
2023-01-31T00:11:03.833Z,26.10
2023-01-31T00:14:32.216Z,30.00
2023-01-31T00:18:00.027Z,21.80
2023-01-31T00:21:31.208Z,22.80
2023-01-31T00:24:59.311Z,22.30
2023-01-31T00:28:29.612Z,19.90
2023-01-31T00:31:58.517Z,25.80
2023-01-31T00:35:25.607Z,17.50
2023-01-31T00:38:59.472Z,21.20
2023-01-31T00:42:29.774Z,32.30
2023-01-31T00:46:00.722Z,21.00
2023-01-31T00:49:28.009Z,28.80
2023-01-31T00:52:57.368Z,31.40
2023-01-31T00:56:27.287Z,19.90
2023-01-31T00:59:54.256Z,19.60
2023-01-31T01:03:22.165Z,21.50
2023-01-31T01:06:51.264Z,20.20
2023-01-31T01:10:18.634Z,21.90
2023-01-31T01:13:46.811Z,22.70
2023-01-31T01:17:13.500Z,32.60
2023-01-31T01:20:41.179Z,26.40
2023-01-31T01:24:15.608Z,26.20
2023-01-31T01:27:45.451Z,25.30
2023-01-31T01:31:17.912Z,25.10
2023-01-31T01:34:45.151Z,21.90
2023-01-31T01:38:15.299Z,27.50
2023-01-31T01:41:42.741Z,31.20
2023-01-31T01:45:18.834Z,28.40
2023-01-31T01:48:50.229Z,27.90
2023-01-31T01:52:19.692Z,21.10
2023-01-31T01:55:50.908Z,24.10
2023-01-31T01:59:21.984Z,21.40
2023-01-31T02:02:50.420Z,27.10
2023-01-31T02:06:17.278Z,20.40
2023-01-31T02:09:50.331Z,21.90
2023-01-31T02:13:18.980Z,19.80
2023-01-31T02:16:45.650Z,28.90
2023-01-31T02:20:40.276Z,29.90
2023-01-31T02:24:43.394Z,27.70
2023-01-31T02:28:43.092Z,21.20
2023-01-31T02:32:37.092Z,19.40
2023-01-31T02:36:16.886Z,17.20
2023-01-31T02:39:51.818Z,14.80
2023-01-31T02:43:24.872Z,20.00
2023-01-31T02:46:59.401Z,21.40
2023-01-31T02:50:32.444Z,25.70
2023-01-31T02:54:07.920Z,26.70
2023-01-31T02:57:35.435Z,24.80
2023-01-31T03:01:07.104Z,21.80
2023-01-31T03:04:37.067Z,17.90
2023-01-31T03:08:08.684Z,23.40
2023-01-31T03:11:47.720Z,20.80
2023-01-31T03:15:52.142Z,19.70
2023-01-31T03:19:23.306Z,15.50
2023-01-31T03:22:58.596Z,16.30
2023-01-31T03:26:27.655Z,20.30
2023-01-31T03:29:59.728Z,20.70
2023-01-31T03:33:31.317Z,26.10
2023-01-31T03:37:06.389Z,19.00
2023-01-31T03:40:53.286Z,22.50
2023-01-31T03:44:27.157Z,20.90
2023-01-31T03:47:59.568Z,18.30
2023-01-31T03:51:32.476Z,20.50
2023-01-31T03:55:07.198Z,15.00
2023-01-31T03:58:40.107Z,18.70
2023-01-31T04:02:11.868Z,16.30
2023-01-31T04:05:41.693Z,15.90
2023-01-31T04:09:09.903Z,18.50
2023-01-31T04:12:39.985Z,22.60
2023-01-31T04:16:07.592Z,22.20
2023-01-31T04:19:41.885Z,25.00
2023-01-31T04:23:08.986Z,23.80
2023-01-31T04:26:35.809Z,20.20
2023-01-31T04:30:03.264Z,21.60
2023-01-31T04:33:31.083Z,20.00
2023-01-31T04:36:57.954Z,23.30
2023-01-31T04:40:24.928Z,23.30
2023-01-31T04:43:51.883Z,19.80
2023-01-31T04:47:19.575Z,18.00
2023-01-31T04:50:46.485Z,18.20
2023-01-31T04:54:13.414Z,17.60
2023-01-31T04:57:40.714Z,25.70
2023-01-31T05:01:07.495Z,18.80
2023-01-31T05:04:34.255Z,21.00
2023-01-31T05:08:01.051Z,22.80
2023-01-31T05:11:28.598Z,13.10
2023-01-31T05:14:55.742Z,19.60
2023-01-31T05:18:23.443Z,21.60
2023-01-31T05:21:59.306Z,21.40
2023-01-31T05:25:27.091Z,19.10
2023-01-31T05:28:53.875Z,28.10
2023-01-31T05:32:20.782Z,18.30
2023-01-31T05:35:47.470Z,22.50
2023-01-31T05:39:14.933Z,21.90
2023-01-31T05:42:42.089Z,19.10
2023-01-31T05:46:09.802Z,27.30
2023-01-31T05:49:36.913Z,18.80
2023-01-31T05:53:04.366Z,17.60
2023-01-31T05:56:30.990Z,19.70
2023-01-31T05:59:58.580Z,23.50
2023-01-31T06:03:25.950Z,20.20
2023-01-31T06:06:52.366Z,20.50
2023-01-31T06:10:20.979Z,23.30
2023-01-31T06:13:49.558Z,21.40
2023-01-31T06:17:16.717Z,23.20
2023-01-31T06:20:43.302Z,26.80
2023-01-31T06:24:10.813Z,19.10
2023-01-31T06:27:38.639Z,19.50
2023-01-31T06:31:11.440Z,20.90
2023-01-31T06:34:38.203Z,21.10
2023-01-31T06:38:05.380Z,20.00
2023-01-31T06:41:34.226Z,28.60
2023-01-31T06:45:02.588Z,22.60
2023-01-31T06:48:29.269Z,30.20
2023-01-31T06:51:56.803Z,25.20
2023-01-31T06:55:24.091Z,25.90
2023-01-31T06:58:50.966Z,26.20
2023-01-31T07:02:17.498Z,18.90
2023-01-31T07:05:46.235Z,23.80
2023-01-31T07:09:13.952Z,25.30
2023-01-31T07:12:40.863Z,34.20
2023-01-31T07:16:09.312Z,27.80
2023-01-31T07:19:36.226Z,27.80
2023-01-31T07:23:03.282Z,31.50
2023-01-31T07:26:30.130Z,19.90
2023-01-31T07:29:57.630Z,17.70
2023-01-31T07:33:24.244Z,18.10
2023-01-31T07:36:50.850Z,16.50
2023-01-31T07:40:19.423Z,21.50
2023-01-31T07:43:45.782Z,25.80
2023-01-31T07:47:12.731Z,21.90
2023-01-31T07:50:39.717Z,28.20
2023-01-31T07:54:06.299Z,21.90
2023-01-31T07:57:35.378Z,21.00
2023-01-31T08:01:19.995Z,17.80
2023-01-31T08:04:47.065Z,25.90
2023-01-31T08:08:14.040Z,24.30
2023-01-31T08:11:41.382Z,20.50
2023-01-31T08:15:13.066Z,27.00
2023-01-31T08:18:40.235Z,31.10
2023-01-31T08:22:08.036Z,16.90
2023-01-31T08:25:34.987Z,31.50
2023-01-31T08:29:02.315Z,21.10
2023-01-31T08:32:29.349Z,20.60
2023-01-31T08:35:56.235Z,18.80
2023-01-31T08:39:23.375Z,15.70
2023-01-31T08:42:58.370Z,21.30
2023-01-31T08:46:26.028Z,16.70
2023-01-31T08:49:52.838Z,17.60
2023-01-31T08:53:19.410Z,16.10
2023-01-31T08:56:46.135Z,22.50
2023-01-31T09:00:15.854Z,12.60
2023-01-31T09:03:45.118Z,23.50
2023-01-31T09:07:12.655Z,15.70
2023-01-31T09:10:39.747Z,16.80
2023-01-31T09:14:07.312Z,17.10
2023-01-31T09:17:34.174Z,15.20
2023-01-31T09:21:07.116Z,16.60
2023-01-31T09:24:33.865Z,17.80
2023-01-31T09:28:01.785Z,15.40
2023-01-31T09:31:29.002Z,18.10
2023-01-31T09:34:55.434Z,15.40
2023-01-31T09:38:22.748Z,17.50
2023-01-31T09:41:53.881Z,21.20
2023-01-31T09:45:31.192Z,25.70
2023-01-31T09:49:01.273Z,19.00
2023-01-31T09:52:30.841Z,15.40
2023-01-31T09:56:09.148Z,19.10
2023-01-31T09:59:49.200Z,19.10
2023-01-31T10:03:33.939Z,16.30
2023-01-31T10:07:07.073Z,20.30
2023-01-31T10:14:15.267Z,16.00
2023-01-31T10:17:47.051Z,13.50
2023-01-31T10:21:18.362Z,14.00
2023-01-31T10:24:51.024Z,15.20
2023-01-31T10:28:23.186Z,13.50
2023-01-31T10:31:56.774Z,17.60
2023-01-31T10:35:31.908Z,13.20
2023-01-31T10:39:06.592Z,14.20
2023-01-31T10:42:36.386Z,9.10
2023-01-31T10:46:10.009Z,11.00
2023-01-31T10:49:37.066Z,11.00
2023-01-31T10:53:17.200Z,14.80
2023-01-31T10:56:45.995Z,11.70
2023-01-31T11:00:23.914Z,17.90
2023-01-31T11:03:53.679Z,13.10
2023-01-31T11:07:22.278Z,19.40
2023-01-31T11:10:57.364Z,13.70
2023-01-31T11:14:24.283Z,15.00
2023-01-31T11:17:51.971Z,18.50
2023-01-31T11:21:26.725Z,20.50
2023-01-31T11:24:54.846Z,13.00
2023-01-31T11:28:26.146Z,14.90
2023-01-31T11:31:54.238Z,12.60
2023-01-31T11:35:31.623Z,15.10
2023-01-31T11:38:58.951Z,9.50
2023-01-31T11:42:26.150Z,13.20
2023-01-31T11:46:03.837Z,13.20
2023-01-31T11:49:39.929Z,15.90
2023-01-31T11:53:19.095Z,12.80
2023-01-31T11:56:46.882Z,20.50
2023-01-31T12:00:25.066Z,12.00
2023-01-31T12:04:03.213Z,18.00
2023-01-31T12:07:42.124Z,19.50
2023-01-31T12:11:32.946Z,15.20
2023-01-31T12:15:04.287Z,14.70
2023-01-31T12:18:58.344Z,17.80
2023-01-31T12:26:10.014Z,14.30
2023-01-31T12:30:01.853Z,20.00
2023-01-31T12:33:40.459Z,18.90
2023-01-31T12:37:25.592Z,15.20
2023-01-31T12:41:04.222Z,15.00
2023-01-31T12:44:46.809Z,13.80
2023-01-31T12:48:40.669Z,23.00
2023-01-31T12:52:16.342Z,22.90
2023-01-31T12:55:52.398Z,20.20
2023-01-31T12:59:36.918Z,21.10
2023-01-31T13:03:34.808Z,26.80
2023-01-31T13:07:06.506Z,18.70
2023-01-31T13:10:40.906Z,18.70
2023-01-31T13:14:13.103Z,28.70
2023-01-31T13:17:43.437Z,24.60
2023-01-31T13:21:14.793Z,25.10
2023-01-31T13:24:48.706Z,21.50
2023-01-31T13:28:23.101Z,17.10
2023-01-31T13:31:56.940Z,21.30
2023-01-31T13:35:28.073Z,26.40
2023-01-31T13:38:58.283Z,21.60
2023-01-31T13:42:28.608Z,19.70
2023-01-31T13:46:02.849Z,17.90
2023-01-31T13:49:34.706Z,24.00
2023-01-31T13:53:07.080Z,25.10
2023-01-31T13:56:41.909Z,18.10
2023-01-31T14:00:25.314Z,24.00
2023-01-31T14:04:27.260Z,14.60
2023-01-31T14:08:32.390Z,26.40
2023-01-31T14:12:03.208Z,24.10
2023-01-31T14:15:54.118Z,23.80
2023-01-31T14:19:55.469Z,20.10
2023-01-31T14:23:48.289Z,33.50
2023-01-31T14:27:24.418Z,24.80
2023-01-31T14:30:54.778Z,20.10
2023-01-31T14:34:32.219Z,32.40
2023-01-31T14:38:15.021Z,21.50
2023-01-31T14:42:05.471Z,20.20
2023-01-31T14:45:51.070Z,21.50
2023-01-31T14:49:51.818Z,22.20
2023-01-31T14:53:56.966Z,36.10
2023-01-31T14:57:30.068Z,25.90
2023-01-31T15:01:01.120Z,27.30
2023-01-31T15:04:29.567Z,28.60
2023-01-31T15:08:24.988Z,26.10
2023-01-31T15:11:55.985Z,21.00
2023-01-31T15:15:34.936Z,23.90
2023-01-31T15:19:09.653Z,22.50
2023-01-31T15:22:42.329Z,28.50
2023-01-31T15:26:11.347Z,20.20
2023-01-31T15:29:51.659Z,23.80
2023-01-31T15:33:23.865Z,20.60
2023-01-31T15:37:02.971Z,20.10
2023-01-31T15:40:37.189Z,21.20
2023-01-31T15:44:25.577Z,15.20
2023-01-31T15:48:01.131Z,14.20
2023-01-31T15:51:29.357Z,18.90
2023-01-31T15:54:59.073Z,17.40
2023-01-31T15:58:30.517Z,13.60
2023-01-31T16:02:02.933Z,14.50
2023-01-31T16:05:34.442Z,14.00
2023-01-31T16:09:04.354Z,10.20
2023-01-31T16:12:33.581Z,13.30
2023-01-31T16:16:00.664Z,10.60
2023-01-31T16:19:33.874Z,12.80
2023-01-31T16:23:00.790Z,12.00
2023-01-31T16:26:33.304Z,12.80
2023-01-31T16:30:01.929Z,18.40
2023-01-31T16:33:29.329Z,13.70
2023-01-31T16:37:00.309Z,14.20
2023-01-31T16:40:31.950Z,15.00
2023-01-31T16:44:01.763Z,10.10
2023-01-31T16:47:48.120Z,11.00
2023-01-31T16:51:44.096Z,11.90
2023-01-31T16:55:18.443Z,13.90
2023-01-31T16:58:51.578Z,12.00
2023-01-31T17:02:26.226Z,13.10
2023-01-31T17:05:53.111Z,12.60
2023-01-31T17:09:24.003Z,9.60
2023-01-31T17:12:52.378Z,12.30
2023-01-31T17:16:25.329Z,11.40
2023-01-31T17:19:52.778Z,10.70
2023-01-31T17:23:20.824Z,15.00
2023-01-31T17:26:49.759Z,13.40
2023-01-31T17:30:20.397Z,9.70
2023-01-31T17:33:47.246Z,10.00
2023-01-31T17:37:18.070Z,11.20
2023-01-31T17:40:49.333Z,10.60
2023-01-31T17:44:17.833Z,9.20
2023-01-31T17:47:44.833Z,10.50
2023-01-31T17:51:15.095Z,12.10
2023-01-31T17:54:42.208Z,10.50
2023-01-31T17:58:12.943Z,12.30
2023-01-31T18:01:39.396Z,11.70
2023-01-31T18:05:07.406Z,13.50
2023-01-31T18:08:35.462Z,14.00
2023-01-31T18:12:05.804Z,15.60
2023-01-31T18:15:34.145Z,17.30
2023-01-31T18:19:01.623Z,15.00
2023-01-31T18:22:29.736Z,23.30
2023-01-31T18:25:56.370Z,18.50
2023-01-31T18:29:26.527Z,21.10
2023-01-31T18:32:53.794Z,20.00
2023-01-31T18:36:23.353Z,17.10
2023-01-31T18:39:53.957Z,14.70
2023-01-31T18:43:21.325Z,11.90
2023-01-31T18:46:49.241Z,11.20
2023-01-31T18:50:16.783Z,15.40
2023-01-31T18:53:45.575Z,13.20
2023-01-31T18:57:12.590Z,13.60
2023-01-31T19:00:40.313Z,11.40
2023-01-31T19:04:08.010Z,11.00
2023-01-31T19:07:34.980Z,12.20
2023-01-31T19:11:08.676Z,11.40
2023-01-31T19:14:35.883Z,11.90
2023-01-31T19:18:02.663Z,10.20
2023-01-31T19:21:31.460Z,12.40
2023-01-31T19:24:58.098Z,9.90
2023-01-31T19:28:25.915Z,9.20
2023-01-31T19:31:57.120Z,10.40
2023-01-31T19:35:24.631Z,17.20
2023-01-31T19:38:52.500Z,10.50
2023-01-31T19:42:25.526Z,10.10
2023-01-31T19:45:53.574Z,11.20
2023-01-31T19:49:24.962Z,8.20
2023-01-31T19:52:55.739Z,8.30
2023-01-31T19:56:24.422Z,10.80
2023-01-31T19:59:54.046Z,7.80
2023-01-31T20:03:20.885Z,10.50
2023-01-31T20:06:49.706Z,8.40
2023-01-31T20:10:21.674Z,6.70
2023-01-31T20:13:52.511Z,13.80
2023-01-31T20:17:20.241Z,10.40
2023-01-31T20:20:49.204Z,10.40
2023-01-31T20:24:16.567Z,10.90
2023-01-31T20:27:46.934Z,10.60
2023-01-31T20:31:16.077Z,9.70
2023-01-31T20:34:44.029Z,10.50
2023-01-31T20:38:12.578Z,10.30
2023-01-31T20:41:42.642Z,10.40
2023-01-31T20:45:12.727Z,12.70
2023-01-31T20:48:40.532Z,8.70
2023-01-31T20:52:10.673Z,9.30
2023-01-31T20:55:39.832Z,12.90
2023-01-31T20:59:08.827Z,10.40
2023-01-31T21:02:37.557Z,9.60
2023-01-31T21:06:06.813Z,15.50
2023-01-31T21:09:33.840Z,12.70
2023-01-31T21:13:05.220Z,10.30
2023-01-31T21:16:35.983Z,11.40
2023-01-31T21:20:02.514Z,12.60
2023-01-31T21:23:29.641Z,10.30
2023-01-31T21:26:56.535Z,7.30
2023-01-31T21:30:24.024Z,7.20
2023-01-31T21:33:57.619Z,5.50
2023-01-31T21:37:24.668Z,8.50
2023-01-31T21:41:13.890Z,9.40
2023-01-31T21:44:41.158Z,7.90
2023-01-31T21:48:29.634Z,13.80
2023-01-31T21:51:57.738Z,10.60
2023-01-31T21:55:25.096Z,9.10
2023-01-31T21:58:55.580Z,8.40
2023-01-31T22:02:23.250Z,14.50
2023-01-31T22:05:50.497Z,13.30
2023-01-31T22:09:19.191Z,11.10
2023-01-31T22:12:52.897Z,18.10
2023-01-31T22:16:25.762Z,12.80
2023-01-31T22:19:59.488Z,11.80
2023-01-31T22:23:33.742Z,12.30
2023-01-31T22:27:04.912Z,17.20
2023-01-31T22:30:33.899Z,15.70
2023-01-31T22:34:04.144Z,17.00
2023-01-31T22:37:31.400Z,10.60
2023-01-31T22:41:04.164Z,18.50
2023-01-31T22:44:30.903Z,8.60
2023-01-31T22:47:59.693Z,11.00
2023-01-31T22:51:28.964Z,15.10
2023-01-31T22:54:56.324Z,12.20
2023-01-31T22:58:24.449Z,11.60
2023-01-31T23:01:51.327Z,12.40
2023-01-31T23:05:18.852Z,18.00
2023-01-31T23:08:46.750Z,11.50
2023-01-31T23:12:13.795Z,12.40
2023-01-31T23:15:41.691Z,11.80
2023-01-31T23:19:08.650Z,14.40
2023-01-31T23:22:35.300Z,11.40
2023-01-31T23:26:02.561Z,8.00
2023-01-31T23:29:29.865Z,11.00
2023-01-31T23:32:56.759Z,10.40
2023-01-31T23:36:23.705Z,17.80
2023-01-31T23:39:50.783Z,11.90
2023-01-31T23:43:17.845Z,18.50
2023-01-31T23:46:44.364Z,18.80
2023-01-31T23:50:13.384Z,12.10
2023-01-31T23:53:40.744Z,13.90
2023-01-31T23:57:07.430Z,14.40
